Pagina principale
METAR-TAF:

METAR-TAF

Aeroporti :

Orlando Sanford International Airport

Orlando, Florida, Stati Uniti

latitudine: 28-47N, longitudine: 081-15W, altezza: 17 m

Osservazione

Il bollettino è stato emesso 56 minuti fa, alle 12:53 UTC
Vento 8 kt da nord/nord-ovest
Temperature 12°C
Umidità 82%
Pressione 1016 hPa
Visibilità: 16.1 km
Nubi sparse ad un'altezza di 3100 ft

METAR: KSFB 281253Z 34008KT 10SM SCT031 12/09 A3000 RMK AO2 SLP157 T01170089

Ora: 08:49 (13:49 UTC)

Previsione

Il bollettino è stato emesso 2 ore e 29 minuti fa, alle 11:20 UTC
Previsione valida dal 28 alle 12 UTC al 29 alle 12 UTC
Vento 9 kt da nord
Visibilità: 10 km
Cielo sereno
A partire da 28 alle 1500 UTC
Vento 8 kt da nord/nord-est
Visibilità: 10 km
Poco nuvoloso ad un'altezza di 4500 ft
A partire da 29 alle 0000 UTC
Vento 4 kt da nord
Visibilità: 10 km
Cielo sereno

TAF: KSFB 281120Z 2812/2912 36009KT P6SM SKC FM281500 03008KT P6SM FEW045 FM290000 01004KT P6SM SKC

Osservazioni e previsioni meteorologiche di più di 4000 aeroporti (messaggi METAR e TAF).

Le stazioni disponibili sono rappresentate dai dischi gialli e rossi sulla carta.

Puntare il mouse per vedere il nome della stazione.

Clicca sopra per visualizzare le osservazioni e previsioni meteorologiche.

Per cambiare la mappa : fare clic sui pulsanti verdi con una croce nera per ingrandire, il pulsante verde con un trattino per diminuire, o sulla freccia verde per le mappe adiacenti.


METAR-TAF: